Time;durP1;ratioP1;P1;durP2;ratioP2;P2;SDS_P1;SDS_P2;PMS_P1;PMS_P2;Temp;Humidity;BMP_temperature;BMP_pressure;BME280_temperature;BME280_humidity;BME280_pressure;Samples;Min_cycle;Max_cycle;Signal;HPM_P1;HPM_P2
2022/07/03 00:00:30;;;;;;;18.90;11.90;;;;;;;;;;5036356;28;20021;-71
2022/07/03 00:02:57;;;;;;;15.80;9.85;;;;;;;;;;5018532;28;20526;-71
2022/07/03 00:05:23;;;;;;;12.75;8.68;;;;;;;;;;5036522;28;20069;-71
2022/07/03 00:07:48;;;;;;;6.82;5.45;;;;;;;;;;5036368;28;20479;-71
2022/07/03 00:10:15;;;;;;;7.82;5.68;;;;;;;;;;5018510;28;20033;-71
2022/07/03 00:12:40;;;;;;;10.13;5.30;;;;;;;;;;5036096;28;20379;-71
2022/07/03 00:15:06;;;;;;;11.23;6.57;;;;;;;;;;5036269;28;20026;-70
2022/07/03 00:17:32;;;;;;;7.15;5.30;;;;;;;;;;5036338;28;20021;-71
2022/07/03 00:19:57;;;;;;;6.93;5.65;;;;;;;;;;5036119;28;20036;-71
2022/07/03 00:22:24;;;;;;;6.60;5.78;;;;;;;;;;5036284;28;20050;-65
2022/07/03 00:24:50;;;;;;;5.28;4.63;;;;;;;;;;5035774;28;20044;-66
2022/07/03 00:27:16;;;;;;;11.55;6.00;;;;;;;;;;5036080;28;20021;-65
2022/07/03 00:29:42;;;;;;;11.52;7.15;;;;;;;;;;5018065;28;20038;-65
2022/07/03 00:32:09;;;;;;;11.95;6.97;;;;;;;;;;5035750;28;20486;-65
2022/07/03 00:34:35;;;;;;;9.93;5.95;;;;;;;;;;5036256;28;20064;-65
2022/07/03 00:37:01;;;;;;;9.20;5.43;;;;;;;;;;5035733;28;20388;-65
2022/07/03 00:39:28;;;;;;;5.72;4.75;;;;;;;;;;5035572;28;20108;-65
2022/07/03 00:42:03;;;;;;;5.25;4.85;;;;;;;;;;5035609;28;20025;-65
2022/07/03 00:44:29;;;;;;;6.55;4.80;;;;;;;;;;5035639;28;20030;-65
2022/07/03 00:46:55;;;;;;;5.75;5.05;;;;;;;;;;5035481;28;20028;-65
2022/07/03 00:49:22;;;;;;;8.77;5.53;;;;;;;;;;5035424;28;20044;-65
2022/07/03 00:51:50;;;;;;;5.47;4.95;;;;;;;;;;5035549;28;20018;-65
2022/07/03 00:54:19;;;;;;;4.97;4.53;;;;;;;;;;5017602;28;20456;-65
2022/07/03 00:56:49;;;;;;;7.47;4.63;;;;;;;;;;5035186;28;20052;-65
2022/07/03 00:59:14;;;;;;;4.95;4.57;;;;;;;;;;5035472;28;20392;-65
2022/07/03 01:01:40;;;;;;;5.47;4.85;;;;;;;;;;5017407;28;20021;-63
2022/07/03 01:04:05;;;;;;;5.25;4.75;;;;;;;;;;5035148;28;20038;-66
2022/07/03 01:06:33;;;;;;;4.65;4.35;;;;;;;;;;5034990;28;20029;-65
2022/07/03 01:09:02;;;;;;;4.95;4.65;;;;;;;;;;5034692;28;20044;-65
2022/07/03 01:11:33;;;;;;;5.20;4.80;;;;;;;;;;5035182;28;20464;-65
2022/07/03 01:14:17;;;;;;;6.78;6.25;;;;;;;;;;5035159;28;20087;-65
2022/07/03 01:16:58;;;;;;;8.10;5.90;;;;;;;;;;5034996;28;20108;-65
2022/07/03 01:19:35;;;;;;;6.95;5.35;;;;;;;;;;5035439;28;20053;-65
2022/07/03 01:22:19;;;;;;;5.75;5.18;;;;;;;;;;5034938;28;20460;-65
2022/07/03 01:25:04;;;;;;;5.18;4.70;;;;;;;;;;5035062;28;20539;-65
2022/07/03 01:27:32;;;;;;;7.82;4.78;;;;;;;;;;5034732;28;20111;-64
2022/07/03 01:30:06;;;;;;;4.95;4.53;;;;;;;;;;5034975;28;20054;-65
2022/07/03 01:32:37;;;;;;;5.45;4.80;;;;;;;;;;5034719;28;20029;-65
2022/07/03 01:35:04;;;;;;;4.97;4.50;;;;;;;;;;5034507;28;20055;-65
2022/07/03 01:37:30;;;;;;;5.57;5.07;;;;;;;;;;5034837;28;20009;-65
2022/07/03 01:39:57;;;;;;;4.95;4.55;;;;;;;;;;5034586;28;20108;-65
2022/07/03 01:42:22;;;;;;;4.50;4.10;;;;;;;;;;5034728;28;20013;-65
2022/07/03 01:44:50;;;;;;;7.50;4.55;;;;;;;;;;5034474;28;20439;-65
2022/07/03 01:47:17;;;;;;;4.90;4.50;;;;;;;;;;5034570;28;20045;-65
2022/07/03 01:49:43;;;;;;;4.82;4.43;;;;;;;;;;5034244;28;20069;-65
2022/07/03 01:52:10;;;;;;;7.53;4.43;;;;;;;;;;5034552;28;20048;-64
2022/07/03 01:54:36;;;;;;;5.72;5.22;;;;;;;;;;5034394;28;20029;-65
2022/07/03 01:57:05;;;;;;;5.43;5.03;;;;;;;;;;5034040;28;20069;-65
2022/07/03 01:59:31;;;;;;;5.10;4.80;;;;;;;;;;5034320;28;20108;-65
2022/07/03 02:02:18;;;;;;;5.45;5.03;;;;;;;;;;5016455;28;20021;-64
2022/07/03 02:04:50;;;;;;;4.95;4.55;;;;;;;;;;5034078;28;20053;-65
2022/07/03 02:07:20;;;;;;;5.22;4.93;;;;;;;;;;5033985;28;20471;-65
2022/07/03 02:09:49;;;;;;;5.35;4.85;;;;;;;;;;5033997;28;20025;-65
2022/07/03 02:12:17;;;;;;;5.38;5.07;;;;;;;;;;5016615;28;20033;-65
2022/07/03 02:14:48;;;;;;;5.20;4.80;;;;;;;;;;5034103;28;20029;-64
2022/07/03 02:17:17;;;;;;;6.72;6.13;;;;;;;;;;5034156;28;20494;-65
2022/07/03 02:19:52;;;;;;;6.78;6.18;;;;;;;;;;5033875;28;20389;-64
2022/07/03 02:22:24;;;;;;;6.55;5.85;;;;;;;;;;5033805;28;20033;-65
2022/07/03 02:24:50;;;;;;;4.90;4.50;;;;;;;;;;5033829;28;20390;-65
2022/07/03 02:27:25;;;;;;;4.70;4.40;;;;;;;;;;5033735;28;20101;-65
2022/07/03 02:29:55;;;;;;;4.88;4.47;;;;;;;;;;5033691;28;20057;-65
2022/07/03 02:32:22;;;;;;;5.38;4.88;;;;;;;;;;5016174;28;20033;-65
2022/07/03 02:35:02;;;;;;;6.15;4.63;;;;;;;;;;5033824;28;20022;-65
2022/07/03 02:37:29;;;;;;;5.25;4.53;;;;;;;;;;5033512;28;20108;-65
2022/07/03 02:40:01;;;;;;;5.80;5.03;;;;;;;;;;5033746;28;20519;-65
2022/07/03 02:42:37;;;;;;;5.00;4.65;;;;;;;;;;5034170;28;20061;-65
2022/07/03 02:45:03;;;;;;;5.00;4.57;;;;;;;;;;5033546;28;20109;-65
2022/07/03 02:47:28;;;;;;;4.70;4.40;;;;;;;;;;5033720;28;20105;-65
2022/07/03 02:50:05;;;;;;;4.53;4.13;;;;;;;;;;5033751;28;20055;-65
2022/07/03 02:52:36;;;;;;;7.05;4.78;;;;;;;;;;5033383;28;20052;-65
2022/07/03 02:55:10;;;;;;;6.18;4.88;;;;;;;;;;5033621;28;20068;-65
2022/07/03 02:57:40;;;;;;;5.13;4.72;;;;;;;;;;5033423;28;20092;-65
2022/07/03 03:00:08;;;;;;;5.93;5.32;;;;;;;;;;5033481;28;20368;-65
2022/07/03 03:02:36;;;;;;;6.50;5.05;;;;;;;;;;5033681;28;20387;-65
2022/07/03 03:05:05;;;;;;;6.28;5.60;;;;;;;;;;5015671;28;20063;-65
2022/07/03 03:07:35;;;;;;;5.85;5.35;;;;;;;;;;5033359;28;20029;-65
2022/07/03 03:10:00;;;;;;;5.20;4.83;;;;;;;;;;5033632;28;20025;-65
2022/07/03 03:12:30;;;;;;;6.07;5.57;;;;;;;;;;5033242;28;20272;-65
2022/07/03 03:15:00;;;;;;;5.75;5.25;;;;;;;;;;5033176;28;20487;-65
2022/07/03 03:17:28;;;;;;;7.68;5.65;;;;;;;;;;5033573;28;20468;-65
2022/07/03 03:19:58;;;;;;;5.70;5.03;;;;;;;;;;5015647;28;20093;-65
2022/07/03 03:22:35;;;;;;;5.90;5.40;;;;;;;;;;5033241;28;20116;-65
2022/07/03 03:25:02;;;;;;;5.93;5.47;;;;;;;;;;5033200;28;20107;-65
2022/07/03 03:27:27;;;;;;;6.07;5.57;;;;;;;;;;5033395;28;20018;-65
2022/07/03 03:29:53;;;;;;;7.43;6.10;;;;;;;;;;5015437;28;20510;-65
2022/07/03 03:32:18;;;;;;;7.05;6.32;;;;;;;;;;5036974;28;20017;-65
2022/07/03 03:34:45;;;;;;;7.68;7.07;;;;;;;;;;5037064;28;20033;-65
2022/07/03 03:37:10;;;;;;;8.25;7.55;;;;;;;;;;5019034;28;20026;-65
2022/07/03 03:39:36;;;;;;;8.57;7.70;;;;;;;;;;5036723;28;20434;-71
2022/07/03 03:42:02;;;;;;;8.00;7.30;;;;;;;;;;5036722;28;20514;-70
2022/07/03 03:44:29;;;;;;;8.35;7.40;;;;;;;;;;5036677;28;20026;-71
2022/07/03 03:46:54;;;;;;;7.25;6.65;;;;;;;;;;5036885;28;20024;-71
2022/07/03 03:49:20;;;;;;;6.90;6.40;;;;;;;;;;5036584;28;20112;-71
2022/07/03 03:51:45;;;;;;;6.55;6.10;;;;;;;;;;5036694;28;20048;-71
2022/07/03 03:54:11;;;;;;;5.88;5.40;;;;;;;;;;5036705;28;20443;-71
2022/07/03 03:56:36;;;;;;;6.32;5.82;;;;;;;;;;5018658;28;20399;-71
2022/07/03 03:59:02;;;;;;;5.90;5.50;;;;;;;;;;5036899;28;20029;-71
2022/07/03 04:01:27;;;;;;;5.65;5.15;;;;;;;;;;5036598;28;20029;-70
2022/07/03 04:03:52;;;;;;;5.90;5.40;;;;;;;;;;5036284;28;20078;-71
2022/07/03 04:06:21;;;;;;;7.18;5.65;;;;;;;;;;5018936;28;20049;-71
2022/07/03 04:08:46;;;;;;;6.68;6.20;;;;;;;;;;5018451;28;20029;-71
2022/07/03 04:11:11;;;;;;;6.60;6.13;;;;;;;;;;5036620;28;20014;-71
2022/07/03 04:13:37;;;;;;;6.57;6.05;;;;;;;;;;5036033;28;20392;-71
2022/07/03 04:16:02;;;;;;;7.15;5.95;;;;;;;;;;5036223;28;20022;-71
2022/07/03 04:18:28;;;;;;;5.53;5.05;;;;;;;;;;5036357;28;20029;-71
2022/07/03 04:20:53;;;;;;;5.53;5.13;;;;;;;;;;5035959;28;20367;-71
2022/07/03 04:23:19;;;;;;;6.22;5.72;;;;;;;;;;5036504;28;20036;-71
2022/07/03 04:25:44;;;;;;;6.75;6.15;;;;;;;;;;5035890;28;20460;-71
2022/07/03 04:28:10;;;;;;;6.93;6.35;;;;;;;;;;5036134;28;20025;-71
2022/07/03 04:30:35;;;;;;;6.82;6.32;;;;;;;;;;5035925;28;20023;-71
2022/07/03 04:33:01;;;;;;;7.25;6.60;;;;;;;;;;5036177;28;20120;-71
2022/07/03 04:35:26;;;;;;;6.53;6.03;;;;;;;;;;5036017;28;20021;-71
2022/07/03 04:37:52;;;;;;;6.55;6.00;;;;;;;;;;5035821;28;20021;-71
2022/07/03 04:40:17;;;;;;;5.50;5.10;;;;;;;;;;5018023;28;20045;-71
2022/07/03 04:42:42;;;;;;;5.53;5.03;;;;;;;;;;5034377;28;20026;-71
2022/07/03 04:45:08;;;;;;;7.18;6.00;;;;;;;;;;5017805;28;20121;-71
2022/07/03 04:47:33;;;;;;;7.35;6.65;;;;;;;;;;5035733;28;20032;-71
2022/07/03 04:49:59;;;;;;;7.22;6.53;;;;;;;;;;5035413;28;20025;-71
2022/07/03 04:52:24;;;;;;;7.15;6.55;;;;;;;;;;5035380;28;20038;-71
2022/07/03 04:54:50;;;;;;;7.65;6.97;;;;;;;;;;5035310;28;20021;-71
2022/07/03 04:57:16;;;;;;;7.63;7.03;;;;;;;;;;5035022;28;20431;-71
2022/07/03 04:59:41;;;;;;;7.80;7.03;;;;;;;;;;4923980;23;20143;-71
2022/07/03 05:02:07;;;;;;;7.22;6.63;;;;;;;;;;5035751;28;20051;-70
2022/07/03 05:04:33;;;;;;;7.65;7.05;;;;;;;;;;5017332;28;20014;-71
2022/07/03 05:06:59;;;;;;;6.93;6.22;;;;;;;;;;5035100;28;20373;-71
2022/07/03 05:09:24;;;;;;;7.05;6.45;;;;;;;;;;5035605;28;20077;-71
2022/07/03 05:11:50;;;;;;;5.85;5.50;;;;;;;;;;5035044;28;20031;-71
2022/07/03 05:14:15;;;;;;;5.28;4.85;;;;;;;;;;5034913;28;20022;-71
2022/07/03 05:16:40;;;;;;;4.70;4.43;;;;;;;;;;5035236;28;20038;-71
2022/07/03 05:19:06;;;;;;;4.22;4.03;;;;;;;;;;5035206;28;20021;-71
2022/07/03 05:21:31;;;;;;;3.95;3.65;;;;;;;;;;5034854;28;20080;-71
2022/07/03 05:23:57;;;;;;;3.78;3.58;;;;;;;;;;5035096;28;20021;-71
2022/07/03 05:26:22;;;;;;;4.10;3.80;;;;;;;;;;5034730;28;20034;-71
2022/07/03 05:28:48;;;;;;;3.75;3.45;;;;;;;;;;5034977;28;20109;-71
2022/07/03 05:31:13;;;;;;;4.20;3.90;;;;;;;;;;5016881;28;20037;-71
2022/07/03 05:33:38;;;;;;;4.03;3.80;;;;;;;;;;5034531;28;20017;-71
2022/07/03 05:36:04;;;;;;;4.00;3.80;;;;;;;;;;5016953;28;20052;-71
2022/07/03 05:41:14;;;;;;;4.03;3.80;;;;;;;;;;5042990;23;20063;-71
2022/07/03 05:43:40;;;;;;;4.22;3.83;;;;;;;;;;5034690;28;20030;-71
2022/07/03 05:46:05;;;;;;;4.78;4.47;;;;;;;;;;5034920;28;20036;-71
2022/07/03 05:48:31;;;;;;;4.68;4.38;;;;;;;;;;5034331;28;20037;-71
2022/07/03 05:50:56;;;;;;;4.57;4.28;;;;;;;;;;5034828;28;20021;-71
2022/07/03 05:53:22;;;;;;;4.45;4.13;;;;;;;;;;5033757;28;20025;-71
2022/07/03 05:55:47;;;;;;;4.80;4.40;;;;;;;;;;5034241;28;20069;-71
2022/07/03 05:58:12;;;;;;;4.93;4.40;;;;;;;;;;5034184;28;20391;-71
2022/07/03 06:00:38;;;;;;;4.47;4.15;;;;;;;;;;5016416;28;20084;-71
2022/07/03 06:03:03;;;;;;;4.40;4.10;;;;;;;;;;5034061;28;20022;-71
2022/07/03 06:05:29;;;;;;;4.70;4.30;;;;;;;;;;5016735;28;20021;-71
2022/07/03 06:07:54;;;;;;;4.32;4.03;;;;;;;;;;5033980;28;20105;-71
2022/07/03 06:10:20;;;;;;;4.75;4.45;;;;;;;;;;5034274;28;20563;-71
2022/07/03 06:12:45;;;;;;;5.13;4.72;;;;;;;;;;5033925;28;20024;-71
2022/07/03 06:15:11;;;;;;;4.80;4.40;;;;;;;;;;5033826;28;20375;-71
2022/07/03 06:17:36;;;;;;;5.32;4.93;;;;;;;;;;5033851;28;20029;-71
2022/07/03 06:20:03;;;;;;;5.40;4.97;;;;;;;;;;5034108;28;20017;-71
2022/07/03 06:22:28;;;;;;;4.80;4.50;;;;;;;;;;5034053;28;20053;-71
2022/07/03 06:24:53;;;;;;;4.88;4.57;;;;;;;;;;5016112;28;20049;-71
2022/07/03 06:27:19;;;;;;;5.07;4.72;;;;;;;;;;5033983;28;20464;-71
2022/07/03 06:29:44;;;;;;;5.10;4.65;;;;;;;;;;5033978;28;20025;-71
2022/07/03 06:32:10;;;;;;;4.78;4.43;;;;;;;;;;5033658;28;20471;-71
2022/07/03 06:34:35;;;;;;;5.18;4.88;;;;;;;;;;5033856;28;20056;-71
2022/07/03 06:37:00;;;;;;;4.60;4.30;;;;;;;;;;5033892;28;20030;-71
2022/07/03 06:39:26;;;;;;;4.68;4.28;;;;;;;;;;5033959;28;20021;-71
2022/07/03 06:41:51;;;;;;;4.50;4.20;;;;;;;;;;5034070;28;20036;-71
2022/07/03 06:44:16;;;;;;;4.68;4.38;;;;;;;;;;5034098;28;20472;-71
2022/07/03 06:46:43;;;;;;;5.43;4.53;;;;;;;;;;5033488;28;20100;-70
2022/07/03 06:49:08;;;;;;;4.72;4.32;;;;;;;;;;5015837;28;20028;-71
2022/07/03 06:51:35;;;;;;;5.30;4.95;;;;;;;;;;5034038;28;20037;-71
2022/07/03 06:54:01;;;;;;;4.80;4.40;;;;;;;;;;5015680;28;20044;-71
2022/07/03 06:56:26;;;;;;;5.13;4.72;;;;;;;;;;5033683;28;20022;-71
2022/07/03 06:58:51;;;;;;;4.53;4.32;;;;;;;;;;5033400;28;20482;-71
2022/07/03 07:01:17;;;;;;;5.53;5.22;;;;;;;;;;5033403;28;20100;-71
2022/07/03 07:03:42;;;;;;;4.75;4.45;;;;;;;;;;5015670;28;20029;-70
2022/07/03 07:06:08;;;;;;;5.18;4.75;;;;;;;;;;5035389;28;20065;-71
2022/07/03 07:08:33;;;;;;;5.10;4.70;;;;;;;;;;5019577;28;20032;-71
2022/07/03 07:10:58;;;;;;;5.20;4.60;;;;;;;;;;5019718;28;20029;-71
2022/07/03 07:13:24;;;;;;;5.05;4.75;;;;;;;;;;5037219;28;20052;-71
2022/07/03 07:15:49;;;;;;;4.40;4.20;;;;;;;;;;5037209;28;20033;-71
2022/07/03 07:18:14;;;;;;;4.63;4.22;;;;;;;;;;5037430;28;20081;-70
2022/07/03 07:20:40;;;;;;;5.22;4.88;;;;;;;;;;5037449;28;20192;-71
2022/07/03 07:23:05;;;;;;;4.38;4.10;;;;;;;;;;5037326;28;20152;-71
2022/07/03 07:25:31;;;;;;;4.60;4.30;;;;;;;;;;5037018;28;20021;-71
2022/07/03 07:27:57;;;;;;;4.15;3.90;;;;;;;;;;5037010;28;20463;-71
2022/07/03 07:30:22;;;;;;;4.45;4.07;;;;;;;;;;5036945;28;20542;-71
2022/07/03 07:32:47;;;;;;;4.70;3.60;;;;;;;;;;5037190;28;20444;-71
2022/07/03 07:35:13;;;;;;;4.28;4.05;;;;;;;;;;5037045;28;20060;-70
2022/07/03 07:37:38;;;;;;;4.47;4.18;;;;;;;;;;5036817;28;20013;-70
2022/07/03 07:40:04;;;;;;;4.10;3.90;;;;;;;;;;5046630;23;20112;-70
2022/07/03 07:42:30;;;;;;;5.63;5.13;;;;;;;;;;5019694;28;20375;-71
2022/07/03 07:44:55;;;;;;;5.82;5.03;;;;;;;;;;5036643;28;20104;-70
2022/07/03 07:47:20;;;;;;;4.82;4.43;;;;;;;;;;5036607;28;20079;-71
2022/07/03 07:49:46;;;;;;;5.32;5.00;;;;;;;;;;5036879;28;20108;-70
2022/07/03 07:52:11;;;;;;;5.50;5.20;;;;;;;;;;5037057;28;20025;-71
2022/07/03 07:54:36;;;;;;;6.07;5.65;;;;;;;;;;5036422;28;20480;-70
2022/07/03 07:57:02;;;;;;;5.13;4.82;;;;;;;;;;5036459;28;20460;-70
2022/07/03 07:59:27;;;;;;;4.40;4.10;;;;;;;;;;5036709;28;20028;-70
2022/07/03 08:07:21;;;;;;;3.83;3.60;;;;;;;;;;5036777;28;20235;-71
2022/07/03 08:09:46;;;;;;;3.50;3.30;;;;;;;;;;5018531;28;20437;-71
2022/07/03 08:12:11;;;;;;;3.50;3.20;;;;;;;;;;5036172;28;20152;-70
2022/07/03 08:14:43;;;;;;;3.28;2.97;;;;;;;;;;5046245;23;20052;-71
2022/07/03 08:17:09;;;;;;;2.60;2.50;;;;;;;;;;5034750;28;20044;-71
2022/07/03 08:19:34;;;;;;;3.38;3.00;;;;;;;;;;5036327;28;20026;-70
2022/07/03 08:22:01;;;;;;;2.90;2.70;;;;;;;;;;5036555;28;20038;-71
2022/07/03 08:24:26;;;;;;;3.00;2.80;;;;;;;;;;5036232;28;20017;-70
2022/07/03 08:26:52;;;;;;;2.65;2.47;;;;;;;;;;5036155;28;20116;-71
2022/07/03 08:29:17;;;;;;;2.70;2.60;;;;;;;;;;5035879;28;20033;-71
2022/07/03 08:31:42;;;;;;;2.63;2.53;;;;;;;;;;5035766;28;20037;-70
2022/07/03 08:34:12;;;;;;;3.05;2.83;;;;;;;;;;5036275;28;20053;-70
2022/07/03 08:36:39;;;;;;;2.50;2.40;;;;;;;;;;5036032;28;20029;-70
2022/07/03 08:39:04;;;;;;;2.58;2.47;;;;;;;;;;5035926;28;20064;-70
2022/07/03 08:41:31;;;;;;;2.58;2.28;;;;;;;;;;5035884;28;20029;-70
2022/07/03 08:43:58;;;;;;;2.47;2.38;;;;;;;;;;5035849;28;20017;-71
2022/07/03 08:46:25;;;;;;;2.67;2.58;;;;;;;;;;5035553;28;20511;-70
2022/07/03 08:48:52;;;;;;;2.83;2.72;;;;;;;;;;5035510;28;20053;-70
2022/07/03 08:53:47;;;;;;;2.83;2.72;;;;;;;;;;5035199;23;20060;-70
2022/07/03 08:56:13;;;;;;;3.03;2.83;;;;;;;;;;5035920;28;20029;-70
2022/07/03 08:58:39;;;;;;;2.40;2.30;;;;;;;;;;5035309;28;20018;-70
2022/07/03 09:01:05;;;;;;;2.90;2.78;;;;;;;;;;5035565;28;20038;-70
2022/07/03 09:03:30;;;;;;;2.70;2.60;;;;;;;;;;5035545;28;20022;-70
2022/07/03 09:05:57;;;;;;;2.97;2.78;;;;;;;;;;5035733;28;20113;-70
2022/07/03 09:08:23;;;;;;;2.55;2.45;;;;;;;;;;5035147;28;20025;-70
2022/07/03 09:10:48;;;;;;;2.85;2.75;;;;;;;;;;5017635;28;20108;-70
2022/07/03 09:13:14;;;;;;;2.97;2.78;;;;;;;;;;5035245;28;20029;-69
2022/07/03 09:15:39;;;;;;;3.05;2.83;;;;;;;;;;5034943;28;20037;-70
2022/07/03 09:18:06;;;;;;;3.10;2.72;;;;;;;;;;5034976;28;20053;-70
2022/07/03 09:20:31;;;;;;;2.78;2.58;;;;;;;;;;5035433;28;20372;-70
2022/07/03 09:23:20;;;;;;;2.97;2.78;;;;;;;;;;5034826;28;20028;-69
2022/07/03 09:26:02;;;;;;;2.92;2.72;;;;;;;;;;5024184;28;20034;-70
2022/07/03 09:28:42;;;;;;;3.25;3.00;;;;;;;;;;5034616;28;20499;-69
2022/07/03 09:31:08;;;;;;;3.55;3.15;;;;;;;;;;5035017;28;20438;-70
2022/07/03 09:33:33;;;;;;;3.10;2.90;;;;;;;;;;5034599;28;20096;-69
2022/07/03 09:35:59;;;;;;;3.28;3.05;;;;;;;;;;5017049;28;20057;-70
2022/07/03 09:38:24;;;;;;;3.35;3.20;;;;;;;;;;5034562;28;20456;-69
2022/07/03 09:40:51;;;;;;;3.35;3.15;;;;;;;;;;5034804;28;20439;-69
2022/07/03 09:43:21;;;;;;;3.15;2.95;;;;;;;;;;5034757;28;20014;-70
2022/07/03 09:45:46;;;;;;;;;;;;;;;;;;5034803;28;20029;-69
2022/07/03 09:48:22;;;;;;;4.13;3.22;;;;;;;;;;5034936;28;20268;-69
2022/07/03 09:50:47;;;;;;;3.35;3.05;;;;;;;;;;5034597;28;20448;-69
2022/07/03 09:53:12;;;;;;;2.92;2.83;;;;;;;;;;5034163;28;20149;-70
2022/07/03 09:55:38;;;;;;;2.90;2.80;;;;;;;;;;5034509;28;20040;-69
2022/07/03 09:58:03;;;;;;;2.85;2.75;;;;;;;;;;5034518;28;20025;-70
2022/07/03 10:00:30;;;;;;;3.25;3.10;;;;;;;;;;5034763;28;20224;-70
2022/07/03 10:02:56;;;;;;;3.20;2.90;;;;;;;;;;5034154;28;20486;-69
2022/07/03 10:05:23;;;;;;;3.28;3.08;;;;;;;;;;5016353;28;20026;-70
2022/07/03 10:07:52;;;;;;;2.90;2.70;;;;;;;;;;5016279;28;20021;-70
2022/07/03 10:10:19;;;;;;;2.70;2.60;;;;;;;;;;5034029;28;20041;-70
2022/07/03 10:12:45;;;;;;;2.90;2.70;;;;;;;;;;5034562;28;20395;-70
2022/07/03 10:15:12;;;;;;;3.28;3.08;;;;;;;;;;5033902;28;20037;-70
2022/07/03 10:17:38;;;;;;;2.95;2.75;;;;;;;;;;5034200;28;20024;-70
2022/07/03 10:20:03;;;;;;;2.88;2.67;;;;;;;;;;5034403;28;20017;-70
2022/07/03 10:22:29;;;;;;;2.58;2.30;;;;;;;;;;5016184;28;20057;-69
2022/07/03 10:24:55;;;;;;;3.55;2.78;;;;;;;;;;5033776;28;20040;-70
2022/07/03 10:27:21;;;;;;;3.03;2.92;;;;;;;;;;5034064;28;20476;-69
2022/07/03 10:29:47;;;;;;;3.40;3.20;;;;;;;;;;5033700;28;20116;-70
2022/07/03 10:32:13;;;;;;;3.47;3.25;;;;;;;;;;5033736;28;20064;-70
2022/07/03 10:34:41;;;;;;;3.08;2.88;;;;;;;;;;5033888;28;20025;-70
2022/07/03 10:37:06;;;;;;;3.60;3.40;;;;;;;;;;5033651;28;20018;-70
2022/07/03 10:39:52;;;;;;;3.00;2.80;;;;;;;;;;5033912;28;20506;-70
2022/07/03 10:45:15;;;;;;;3.58;3.35;;;;;;;;;;5034108;28;20037;-70
2022/07/03 10:47:43;;;;;;;3.00;2.80;;;;;;;;;;5033847;28;20068;-70
2022/07/03 10:50:10;;;;;;;2.78;2.67;;;;;;;;;;5033519;28;20029;-70
2022/07/03 10:52:37;;;;;;;2.92;2.72;;;;;;;;;;5033547;28;20068;-70
2022/07/03 10:55:06;;;;;;;3.15;2.78;;;;;;;;;;5033465;28;20502;-70
2022/07/03 10:57:31;;;;;;;2.95;2.85;;;;;;;;;;5033763;28;20379;-69
2022/07/03 10:59:57;;;;;;;2.85;2.75;;;;;;;;;;5033446;28;20026;-70
2022/07/03 11:02:30;;;;;;;3.53;2.80;;;;;;;;;;5033731;28;20029;-70
2022/07/03 11:07:33;;;;;;;2.47;2.38;;;;;;;;;;5033702;28;20104;-71
2022/07/03 11:10:08;;;;;;;3.15;2.90;;;;;;;;;;5033940;28;20029;-70
2022/07/03 11:12:52;;;;;;;2.97;2.70;;;;;;;;;;5016320;28;20120;-69
2022/07/03 11:15:30;;;;;;;3.22;2.95;;;;;;;;;;5033534;28;20025;-69
2022/07/03 11:18:05;;;;;;;3.35;3.15;;;;;;;;;;4999233;28;20360;-70
2022/07/03 11:20:31;;;;;;;3.60;3.30;;;;;;;;;;5015508;28;20422;-70
2022/07/03 11:23:02;;;;;;;3.22;3.03;;;;;;;;;;5033233;28;20148;-70
2022/07/03 11:25:37;;;;;;;2.88;2.67;;;;;;;;;;5033768;28;20026;-70
2022/07/03 11:28:03;;;;;;;2.83;2.63;;;;;;;;;;5033730;28;20131;-70
2022/07/03 11:30:29;;;;;;;3.00;2.80;;;;;;;;;;5015477;28;20018;-70
2022/07/03 11:32:57;;;;;;;2.90;2.80;;;;;;;;;;5033161;28;20057;-70
2022/07/03 11:35:41;;;;;;;3.45;2.67;;;;;;;;;;5033599;28;20108;-70
2022/07/03 11:38:07;;;;;;;3.00;2.90;;;;;;;;;;5033346;28;20025;-70
2022/07/03 11:40:35;;;;;;;3.00;2.80;;;;;;;;;;5033118;28;20102;-70
2022/07/03 11:43:01;;;;;;;2.88;2.78;;;;;;;;;;5033308;28;20028;-70
2022/07/03 11:45:30;;;;;;;5.22;3.08;;;;;;;;;;5032202;28;20438;-70
2022/07/03 11:47:55;;;;;;;2.70;2.60;;;;;;;;;;5015837;28;20045;-70
2022/07/03 11:50:21;;;;;;;2.90;2.80;;;;;;;;;;5033319;28;20026;-70
2022/07/03 11:52:46;;;;;;;3.40;3.10;;;;;;;;;;5035571;28;20044;-70
2022/07/03 11:55:12;;;;;;;2.72;2.55;;;;;;;;;;5036724;28;20449;-70
2022/07/03 11:57:48;;;;;;;3.10;2.90;;;;;;;;;;5035766;28;20018;-70
2022/07/03 12:00:14;;;;;;;3.00;2.80;;;;;;;;;;5035291;28;20492;-70
2022/07/03 12:02:49;;;;;;;2.97;2.88;;;;;;;;;;5035615;28;20101;-71
2022/07/03 12:05:15;;;;;;;3.28;3.10;;;;;;;;;;5035703;28;20029;-70
2022/07/03 12:07:41;;;;;;;3.35;3.03;;;;;;;;;;5036006;28;20456;-70
2022/07/03 12:10:07;;;;;;;4.78;4.38;;;;;;;;;;5017654;28;20092;-70
2022/07/03 12:12:36;;;;;;;5.75;3.92;;;;;;;;;;5035918;28;20424;-70
2022/07/03 12:15:02;;;;;;;3.20;2.80;;;;;;;;;;5035824;28;20069;-70
2022/07/03 12:17:27;;;;;;;3.42;3.10;;;;;;;;;;5034504;28;20298;-70
2022/07/03 12:19:54;;;;;;;3.20;3.00;;;;;;;;;;5035523;28;20518;-71
2022/07/03 12:22:22;;;;;;;3.05;2.90;;;;;;;;;;5035070;28;20434;-70
2022/07/03 12:24:54;;;;;;;2.80;2.70;;;;;;;;;;5033575;28;20025;-70
2022/07/03 12:27:20;;;;;;;3.30;3.10;;;;;;;;;;5034725;28;20396;-70
2022/07/03 12:29:45;;;;;;;3.47;3.20;;;;;;;;;;5034120;28;20017;-70
2022/07/03 12:32:12;;;;;;;3.00;2.90;;;;;;;;;;5033058;28;20383;-70
2022/07/03 12:34:38;;;;;;;3.55;3.13;;;;;;;;;;5033066;28;20021;-70
2022/07/03 12:37:03;;;;;;;3.42;3.22;;;;;;;;;;5015994;28;20033;-70
2022/07/03 12:39:48;;;;;;;4.03;3.22;;;;;;;;;;5034034;28;20345;-70
2022/07/03 12:42:14;;;;;;;3.45;3.25;;;;;;;;;;5034593;28;20467;-70
2022/07/03 12:44:39;;;;;;;3.63;3.42;;;;;;;;;;5034566;28;20026;-70
2022/07/03 12:47:05;;;;;;;3.72;3.42;;;;;;;;;;5034475;28;20025;-70
2022/07/03 12:49:32;;;;;;;3.53;3.33;;;;;;;;;;5034492;28;20498;-70
2022/07/03 12:51:58;;;;;;;3.30;3.10;;;;;;;;;;5034245;28;20400;-70
2022/07/03 12:54:33;;;;;;;2.85;2.75;;;;;;;;;;5034267;28;20029;-70
2022/07/03 13:00:02;;;;;;;3.05;2.85;;;;;;;;;;5034476;28;20021;-70
2022/07/03 13:02:27;;;;;;;3.42;3.17;;;;;;;;;;5033644;28;20020;-70
2022/07/03 13:04:53;;;;;;;3.35;3.15;;;;;;;;;;5033588;28;20080;-70
2022/07/03 13:07:18;;;;;;;2.88;2.72;;;;;;;;;;5034371;28;20017;-70
2022/07/03 13:09:52;;;;;;;3.40;3.20;;;;;;;;;;5016420;28;20509;-70
2022/07/03 13:12:22;;;;;;;2.92;2.83;;;;;;;;;;5033968;28;20060;-70
2022/07/03 13:14:48;;;;;;;;;;;;;;;;;;5016710;28;20079;-70
2022/07/03 13:17:13;;;;;;;3.33;3.13;;;;;;;;;;5033947;28;20008;-70
2022/07/03 13:19:38;;;;;;;3.90;3.60;;;;;;;;;;5033904;28;20379;-70
2022/07/03 13:22:04;;;;;;;3.50;3.20;;;;;;;;;;5033824;28;20092;-70
2022/07/03 13:24:29;;;;;;;4.28;3.60;;;;;;;;;;5016192;28;20416;-70
2022/07/03 13:26:55;;;;;;;3.83;3.42;;;;;;;;;;5033750;28;20349;-70
2022/07/03 13:29:24;;;;;;;3.50;3.20;;;;;;;;;;5033665;28;20044;-70
2022/07/03 13:31:49;;;;;;;4.88;3.20;;;;;;;;;;5033634;28;20021;-70
2022/07/03 13:34:15;;;;;;;3.42;3.22;;;;;;;;;;5033552;28;20546;-70
2022/07/03 13:36:40;;;;;;;3.53;3.33;;;;;;;;;;5033564;28;20391;-70
2022/07/03 13:39:08;;;;;;;3.45;3.28;;;;;;;;;;5033457;28;20087;-71
2022/07/03 13:41:33;;;;;;;3.30;3.10;;;;;;;;;;5033458;28;20025;-71
2022/07/03 13:43:59;;;;;;;3.80;3.60;;;;;;;;;;5033470;28;20029;-71
2022/07/03 13:46:24;;;;;;;3.53;3.25;;;;;;;;;;5015908;28;20407;-70
2022/07/03 13:48:50;;;;;;;3.30;3.10;;;;;;;;;;5033367;28;20033;-71
2022/07/03 13:51:16;;;;;;;3.47;3.25;;;;;;;;;;5015660;28;20036;-71
2022/07/03 13:53:41;;;;;;;7.03;3.25;;;;;;;;;;5033019;28;20037;-71
2022/07/03 13:56:07;;;;;;;3.50;3.28;;;;;;;;;;5033184;28;20112;-70
2022/07/03 13:58:32;;;;;;;3.50;3.30;;;;;;;;;;5033190;28;20021;-71
2022/07/03 14:00:58;;;;;;;3.10;2.90;;;;;;;;;;5033177;28;20032;-71
2022/07/03 14:03:24;;;;;;;3.20;3.10;;;;;;;;;;5033957;28;20014;-70
2022/07/03 14:05:51;;;;;;;3.42;3.22;;;;;;;;;;5033775;28;20534;-70
2022/07/03 14:08:19;;;;;;;3.70;3.40;;;;;;;;;;5033021;28;20021;-70
2022/07/03 14:10:45;;;;;;;3.83;3.53;;;;;;;;;;5033049;28;20448;-65
2022/07/03 14:13:10;;;;;;;3.40;3.20;;;;;;;;;;5033414;28;20025;-64
2022/07/03 14:15:36;;;;;;;3.10;2.95;;;;;;;;;;5033475;28;20060;-64
2022/07/03 14:18:01;;;;;;;3.20;3.10;;;;;;;;;;5033503;28;20526;-64
2022/07/03 14:20:27;;;;;;;3.40;3.20;;;;;;;;;;5033272;28;20064;-64
2022/07/03 14:22:52;;;;;;;3.72;3.47;;;;;;;;;;5033560;28;20025;-64
2022/07/03 14:25:18;;;;;;;3.70;3.40;;;;;;;;;;5033449;28;20515;-64
2022/07/03 14:33:11;;;;;;;3.10;3.00;;;;;;;;;;5032622;28;20036;-64
2022/07/03 14:35:37;;;;;;;2.47;2.38;;;;;;;;;;5032603;28;20088;-63
2022/07/03 14:38:03;;;;;;;2.67;2.47;;;;;;;;;;5033305;28;20033;-63
2022/07/03 14:40:28;;;;;;;3.55;3.28;;;;;;;;;;5032676;28;20028;-63
2022/07/03 14:42:53;;;;;;;3.20;3.00;;;;;;;;;;5014659;28;20033;-63
2022/07/03 14:45:19;;;;;;;2.83;2.72;;;;;;;;;;5032522;28;20113;-64
2022/07/03 14:47:45;;;;;;;3.08;2.88;;;;;;;;;;5032222;28;20498;-63
2022/07/03 14:50:10;;;;;;;3.05;2.75;;;;;;;;;;5032174;28;20025;-64
2022/07/03 14:52:36;;;;;;;2.85;2.65;;;;;;;;;;5031691;28;20037;-63
2022/07/03 14:55:01;;;;;;;2.90;2.70;;;;;;;;;;5031375;28;20041;-63
2022/07/03 14:57:42;;;;;;;2.50;2.40;;;;;;;;;;5032687;28;20033;-62
2022/07/03 15:00:09;;;;;;;3.10;3.00;;;;;;;;;;5032456;28;20025;-64
2022/07/03 15:02:47;;;;;;;3.30;3.10;;;;;;;;;;5031872;28;20307;-63
2022/07/03 15:05:14;;;;;;;3.10;2.90;;;;;;;;;;5031474;28;20041;-63
2022/07/03 15:07:41;;;;;;;3.42;3.22;;;;;;;;;;5014957;28;20426;-64